Tri Lakes, Indiana
Current Conditions -  °F | °C
As of 9:54 AM on Wednesday 22 Oct 2014 (Local Time) from KFWA Reporting Station
Few Clouds Few Clouds  
Wind Chill: 42°   Ceiling: Unl
Heat Index: 45°   Visibility: 10mi
Dew Point: 39°   Wind: 6mph
Humidity: 80%   Direction: 20°NNE
Pressure: 30.34"   Gusts: NA
Location:  41.1479°N, 85.4772°W
Report Text: KFWA 221354Z 02005KT 10SM FEW027 07/04 A3034 RMK AO2 SLP278 T00720039
Loading
Personal Weather Stations






























Interactive Weather Map
Tropical Storm Tracking
New forecast layout! Learn more

10-Day Weather Forecast

Advertisements
Track Severe Weather on mobile